sensor_id;sensor_type;location;lat;lon;timestamp;P1;durP1;ratioP1;P2;durP2;ratioP2
51495;SDS011;37572;52.094;4.870;2023-07-20T00:01:34;8.37;;;6.00;;
51495;SDS011;37572;52.094;4.870;2023-07-20T00:03:59;10.10;;;6.97;;
51495;SDS011;37572;52.094;4.870;2023-07-20T00:06:24;9.65;;;7.47;;
51495;SDS011;37572;52.094;4.870;2023-07-20T00:08:52;8.98;;;7.38;;
51495;SDS011;37572;52.094;4.870;2023-07-20T00:11:18;8.88;;;6.03;;
51495;SDS011;37572;52.094;4.870;2023-07-20T00:13:43;5.15;;;3.83;;
51495;SDS011;37572;52.094;4.870;2023-07-20T00:16:08;7.13;;;4.50;;
51495;SDS011;37572;52.094;4.870;2023-07-20T00:18:37;7.15;;;4.78;;
51495;SDS011;37572;52.094;4.870;2023-07-20T00:21:02;7.93;;;5.53;;
51495;SDS011;37572;52.094;4.870;2023-07-20T00:23:27;6.47;;;4.90;;
51495;SDS011;37572;52.094;4.870;2023-07-20T00:25:53;6.50;;;4.05;;
51495;SDS011;37572;52.094;4.870;2023-07-20T00:28:18;5.72;;;4.57;;
51495;SDS011;37572;52.094;4.870;2023-07-20T00:30:44;4.72;;;3.80;;
51495;SDS011;37572;52.094;4.870;2023-07-20T00:33:10;5.10;;;3.47;;
51495;SDS011;37572;52.094;4.870;2023-07-20T00:35:36;6.80;;;4.55;;
51495;SDS011;37572;52.094;4.870;2023-07-20T00:38:02;6.82;;;5.32;;
51495;SDS011;37572;52.094;4.870;2023-07-20T00:40:28;6.80;;;5.22;;
51495;SDS011;37572;52.094;4.870;2023-07-20T00:42:53;7.23;;;4.00;;
51495;SDS011;37572;52.094;4.870;2023-07-20T00:45:19;3.70;;;3.13;;
51495;SDS011;37572;52.094;4.870;2023-07-20T00:47:44;4.87;;;3.33;;
51495;SDS011;37572;52.094;4.870;2023-07-20T00:50:09;5.55;;;4.03;;
51495;SDS011;37572;52.094;4.870;2023-07-20T00:52:35;6.47;;;4.53;;
51495;SDS011;37572;52.094;4.870;2023-07-20T00:55:04;5.97;;;4.57;;
51495;SDS011;37572;52.094;4.870;2023-07-20T00:57:29;6.78;;;4.90;;
51495;SDS011;37572;52.094;4.870;2023-07-20T00:59:55;6.93;;;4.63;;
51495;SDS011;37572;52.094;4.870;2023-07-20T01:02:21;6.72;;;5.18;;
51495;SDS011;37572;52.094;4.870;2023-07-20T01:04:46;5.63;;;5.00;;
51495;SDS011;37572;52.094;4.870;2023-07-20T01:07:23;6.28;;;4.95;;
51495;SDS011;37572;52.094;4.870;2023-07-20T01:12:27;7.53;;;4.80;;
51495;SDS011;37572;52.094;4.870;2023-07-20T01:15:02;5.40;;;3.47;;
51495;SDS011;37572;52.094;4.870;2023-07-20T01:17:27;5.82;;;4.85;;
51495;SDS011;37572;52.094;4.870;2023-07-20T01:19:53;6.18;;;4.45;;
51495;SDS011;37572;52.094;4.870;2023-07-20T01:27:57;5.00;;;3.42;;
51495;SDS011;37572;52.094;4.870;2023-07-20T01:30:59;6.00;;;3.85;;
51495;SDS011;37572;52.094;4.870;2023-07-20T01:33:34;6.35;;;4.00;;
51495;SDS011;37572;52.094;4.870;2023-07-20T01:36:00;4.75;;;3.80;;
51495;SDS011;37572;52.094;4.870;2023-07-20T01:38:27;5.10;;;3.63;;
51495;SDS011;37572;52.094;4.870;2023-07-20T01:40:53;5.10;;;3.65;;
51495;SDS011;37572;52.094;4.870;2023-07-20T01:43:20;5.57;;;3.70;;
51495;SDS011;37572;52.094;4.870;2023-07-20T01:45:46;4.57;;;3.60;;
51495;SDS011;37572;52.094;4.870;2023-07-20T01:48:11;4.75;;;3.75;;
51495;SDS011;37572;52.094;4.870;2023-07-20T01:50:37;6.10;;;3.92;;
51495;SDS011;37572;52.094;4.870;2023-07-20T01:53:02;6.38;;;4.43;;
51495;SDS011;37572;52.094;4.870;2023-07-20T01:55:27;8.03;;;4.43;;
51495;SDS011;37572;52.094;4.870;2023-07-20T01:57:54;5.57;;;3.53;;
51495;SDS011;37572;52.094;4.870;2023-07-20T02:00:20;5.28;;;3.00;;
51495;SDS011;37572;52.094;4.870;2023-07-20T02:02:49;6.07;;;4.45;;
51495;SDS011;37572;52.094;4.870;2023-07-20T02:05:14;7.72;;;4.60;;
51495;SDS011;37572;52.094;4.870;2023-07-20T02:07:40;6.90;;;4.78;;
51495;SDS011;37572;52.094;4.870;2023-07-20T02:10:05;5.87;;;4.30;;
51495;SDS011;37572;52.094;4.870;2023-07-20T02:12:31;5.82;;;3.97;;
51495;SDS011;37572;52.094;4.870;2023-07-20T02:14:56;4.47;;;3.13;;
51495;SDS011;37572;52.094;4.870;2023-07-20T02:17:22;5.03;;;3.23;;
51495;SDS011;37572;52.094;4.870;2023-07-20T02:19:50;4.72;;;3.83;;
51495;SDS011;37572;52.094;4.870;2023-07-20T02:22:17;5.22;;;3.33;;
51495;SDS011;37572;52.094;4.870;2023-07-20T02:24:42;5.07;;;3.65;;
51495;SDS011;37572;52.094;4.870;2023-07-20T02:27:07;6.73;;;4.83;;
51495;SDS011;37572;52.094;4.870;2023-07-20T02:29:33;8.05;;;4.30;;
51495;SDS011;37572;52.094;4.870;2023-07-20T02:31:59;8.07;;;5.05;;
51495;SDS011;37572;52.094;4.870;2023-07-20T02:34:24;6.43;;;5.00;;
51495;SDS011;37572;52.094;4.870;2023-07-20T02:36:49;6.37;;;4.90;;
51495;SDS011;37572;52.094;4.870;2023-07-20T02:39:14;8.43;;;4.97;;
51495;SDS011;37572;52.094;4.870;2023-07-20T02:41:40;4.97;;;4.30;;
51495;SDS011;37572;52.094;4.870;2023-07-20T02:44:06;6.20;;;4.75;;
51495;SDS011;37572;52.094;4.870;2023-07-20T02:46:31;6.57;;;4.63;;
51495;SDS011;37572;52.094;4.870;2023-07-20T02:48:57;7.15;;;4.85;;
51495;SDS011;37572;52.094;4.870;2023-07-20T02:51:22;7.97;;;4.03;;
51495;SDS011;37572;52.094;4.870;2023-07-20T02:53:47;6.03;;;4.60;;
51495;SDS011;37572;52.094;4.870;2023-07-20T02:56:13;5.93;;;4.30;;
51495;SDS011;37572;52.094;4.870;2023-07-20T02:58:41;5.55;;;4.55;;
51495;SDS011;37572;52.094;4.870;2023-07-20T03:01:08;6.72;;;4.18;;
51495;SDS011;37572;52.094;4.870;2023-07-20T03:03:35;5.10;;;4.05;;
51495;SDS011;37572;52.094;4.870;2023-07-20T03:06:03;6.65;;;3.55;;
51495;SDS011;37572;52.094;4.870;2023-07-20T03:08:29;5.78;;;3.78;;
51495;SDS011;37572;52.094;4.870;2023-07-20T03:10:55;5.90;;;4.53;;
51495;SDS011;37572;52.094;4.870;2023-07-20T03:13:20;6.90;;;4.75;;
51495;SDS011;37572;52.094;4.870;2023-07-20T03:15:45;5.90;;;4.28;;
51495;SDS011;37572;52.094;4.870;2023-07-20T03:18:11;4.83;;;4.00;;
51495;SDS011;37572;52.094;4.870;2023-07-20T03:20:36;5.03;;;3.88;;
51495;SDS011;37572;52.094;4.870;2023-07-20T03:23:02;5.95;;;4.15;;
51495;SDS011;37572;52.094;4.870;2023-07-20T03:25:27;5.05;;;3.47;;
51495;SDS011;37572;52.094;4.870;2023-07-20T03:27:52;5.17;;;3.93;;
51495;SDS011;37572;52.094;4.870;2023-07-20T03:30:18;5.10;;;3.67;;
51495;SDS011;37572;52.094;4.870;2023-07-20T03:32:43;5.57;;;3.67;;
51495;SDS011;37572;52.094;4.870;2023-07-20T03:35:08;5.43;;;3.47;;
51495;SDS011;37572;52.094;4.870;2023-07-20T03:37:34;6.10;;;4.03;;
51495;SDS011;37572;52.094;4.870;2023-07-20T03:40:01;6.38;;;4.72;;
51495;SDS011;37572;52.094;4.870;2023-07-20T03:42:27;5.97;;;4.47;;
51495;SDS011;37572;52.094;4.870;2023-07-20T03:44:53;6.80;;;4.63;;
51495;SDS011;37572;52.094;4.870;2023-07-20T03:47:18;7.43;;;5.28;;
51495;SDS011;37572;52.094;4.870;2023-07-20T03:49:43;6.83;;;4.93;;
51495;SDS011;37572;52.094;4.870;2023-07-20T03:52:09;7.83;;;5.17;;
51495;SDS011;37572;52.094;4.870;2023-07-20T03:54:34;7.67;;;5.40;;
51495;SDS011;37572;52.094;4.870;2023-07-20T03:56:59;9.48;;;6.13;;
51495;SDS011;37572;52.094;4.870;2023-07-20T03:59:25;8.10;;;5.93;;
51495;SDS011;37572;52.094;4.870;2023-07-20T04:01:51;7.10;;;5.50;;
51495;SDS011;37572;52.094;4.870;2023-07-20T04:04:16;6.43;;;4.10;;
51495;SDS011;37572;52.094;4.870;2023-07-20T04:06:42;8.43;;;6.00;;
51495;SDS011;37572;52.094;4.870;2023-07-20T04:09:09;8.15;;;5.80;;
51495;SDS011;37572;52.094;4.870;2023-07-20T04:11:36;8.30;;;6.80;;
51495;SDS011;37572;52.094;4.870;2023-07-20T04:14:02;8.63;;;6.38;;
51495;SDS011;37572;52.094;4.870;2023-07-20T04:16:27;8.60;;;6.70;;
51495;SDS011;37572;52.094;4.870;2023-07-20T04:18:54;6.13;;;3.88;;
51495;SDS011;37572;52.094;4.870;2023-07-20T04:21:21;8.48;;;5.65;;
51495;SDS011;37572;52.094;4.870;2023-07-20T04:23:47;8.27;;;5.88;;
51495;SDS011;37572;52.094;4.870;2023-07-20T04:26:12;8.05;;;5.28;;
51495;SDS011;37572;52.094;4.870;2023-07-20T04:28:38;8.30;;;5.75;;
51495;SDS011;37572;52.094;4.870;2023-07-20T04:31:14;6.78;;;4.03;;
51495;SDS011;37572;52.094;4.870;2023-07-20T04:33:40;7.40;;;4.95;;
51495;SDS011;37572;52.094;4.870;2023-07-20T04:36:06;5.13;;;4.13;;
51495;SDS011;37572;52.094;4.870;2023-07-20T04:38:32;5.30;;;3.78;;
51495;SDS011;37572;52.094;4.870;2023-07-20T04:40:58;6.40;;;3.97;;
51495;SDS011;37572;52.094;4.870;2023-07-20T04:43:23;5.38;;;4.10;;
51495;SDS011;37572;52.094;4.870;2023-07-20T04:45:49;6.17;;;4.80;;
51495;SDS011;37572;52.094;4.870;2023-07-20T04:48:15;5.93;;;4.50;;
51495;SDS011;37572;52.094;4.870;2023-07-20T04:50:42;5.95;;;4.82;;
51495;SDS011;37572;52.094;4.870;2023-07-20T04:53:09;6.35;;;4.93;;
51495;SDS011;37572;52.094;4.870;2023-07-20T04:55:36;10.32;;;6.88;;
51495;SDS011;37572;52.094;4.870;2023-07-20T04:58:02;10.27;;;6.15;;
51495;SDS011;37572;52.094;4.870;2023-07-20T05:00:28;12.65;;;8.60;;
51495;SDS011;37572;52.094;4.870;2023-07-20T05:02:54;12.10;;;8.20;;
51495;SDS011;37572;52.094;4.870;2023-07-20T05:05:20;13.73;;;8.82;;
51495;SDS011;37572;52.094;4.870;2023-07-20T05:07:45;12.75;;;8.38;;
51495;SDS011;37572;52.094;4.870;2023-07-20T05:10:10;10.53;;;7.53;;
51495;SDS011;37572;52.094;4.870;2023-07-20T05:12:36;11.77;;;7.93;;
51495;SDS011;37572;52.094;4.870;2023-07-20T05:15:02;9.60;;;6.88;;
51495;SDS011;37572;52.094;4.870;2023-07-20T05:17:28;11.65;;;8.63;;
51495;SDS011;37572;52.094;4.870;2023-07-20T05:19:54;13.00;;;8.52;;
51495;SDS011;37572;52.094;4.870;2023-07-20T05:22:19;12.15;;;8.60;;
51495;SDS011;37572;52.094;4.870;2023-07-20T05:24:45;11.63;;;8.40;;
51495;SDS011;37572;52.094;4.870;2023-07-20T05:27:10;12.00;;;8.20;;
51495;SDS011;37572;52.094;4.870;2023-07-20T05:29:35;9.10;;;7.00;;
51495;SDS011;37572;52.094;4.870;2023-07-20T05:32:00;9.90;;;7.90;;
51495;SDS011;37572;52.094;4.870;2023-07-20T05:34:26;10.00;;;7.23;;
51495;SDS011;37572;52.094;4.870;2023-07-20T05:36:51;9.77;;;6.55;;
51495;SDS011;37572;52.094;4.870;2023-07-20T05:39:17;7.30;;;4.73;;
51495;SDS011;37572;52.094;4.870;2023-07-20T05:41:43;7.72;;;5.00;;
51495;SDS011;37572;52.094;4.870;2023-07-20T05:44:08;11.10;;;7.72;;
51495;SDS011;37572;52.094;4.870;2023-07-20T05:46:33;9.27;;;5.90;;
51495;SDS011;37572;52.094;4.870;2023-07-20T05:48:59;9.53;;;6.50;;
51495;SDS011;37572;52.094;4.870;2023-07-20T05:51:24;7.03;;;5.60;;
51495;SDS011;37572;52.094;4.870;2023-07-20T05:53:49;7.47;;;4.47;;
51495;SDS011;37572;52.094;4.870;2023-07-20T05:56:15;6.65;;;4.63;;
51495;SDS011;37572;52.094;4.870;2023-07-20T05:58:40;6.15;;;4.82;;
51495;SDS011;37572;52.094;4.870;2023-07-20T06:01:05;7.33;;;4.70;;
51495;SDS011;37572;52.094;4.870;2023-07-20T06:03:31;5.03;;;4.13;;
51495;SDS011;37572;52.094;4.870;2023-07-20T06:06:01;6.00;;;4.78;;
51495;SDS011;37572;52.094;4.870;2023-07-20T06:08:30;6.28;;;4.97;;
51495;SDS011;37572;52.094;4.870;2023-07-20T06:10:56;5.93;;;4.80;;
51495;SDS011;37572;52.094;4.870;2023-07-20T06:13:21;4.28;;;2.30;;
51495;SDS011;37572;52.094;4.870;2023-07-20T06:15:47;2.40;;;1.27;;
51495;SDS011;37572;52.094;4.870;2023-07-20T06:18:12;2.47;;;1.73;;
51495;SDS011;37572;52.094;4.870;2023-07-20T06:20:38;3.63;;;2.03;;
51495;SDS011;37572;52.094;4.870;2023-07-20T06:23:04;3.58;;;2.38;;
51495;SDS011;37572;52.094;4.870;2023-07-20T06:25:29;2.80;;;2.00;;
51495;SDS011;37572;52.094;4.870;2023-07-20T06:27:54;2.17;;;1.17;;
51495;SDS011;37572;52.094;4.870;2023-07-20T06:30:20;2.05;;;1.15;;
51495;SDS011;37572;52.094;4.870;2023-07-20T06:32:46;2.97;;;1.33;;
51495;SDS011;37572;52.094;4.870;2023-07-20T06:35:11;2.30;;;1.13;;
51495;SDS011;37572;52.094;4.870;2023-07-20T06:37:37;1.98;;;1.23;;
51495;SDS011;37572;52.094;4.870;2023-07-20T06:40:02;1.97;;;1.20;;
51495;SDS011;37572;52.094;4.870;2023-07-20T06:42:28;2.30;;;0.95;;
51495;SDS011;37572;52.094;4.870;2023-07-20T06:44:54;3.40;;;0.75;;
51495;SDS011;37572;52.094;4.870;2023-07-20T06:47:19;2.47;;;1.10;;
51495;SDS011;37572;52.094;4.870;2023-07-20T06:49:45;2.10;;;0.67;;
51495;SDS011;37572;52.094;4.870;2023-07-20T06:52:10;1.40;;;0.60;;
51495;SDS011;37572;52.094;4.870;2023-07-20T06:54:35;1.60;;;0.60;;
51495;SDS011;37572;52.094;4.870;2023-07-20T06:57:01;2.07;;;0.80;;
51495;SDS011;37572;52.094;4.870;2023-07-20T06:59:26;1.50;;;0.70;;
51495;SDS011;37572;52.094;4.870;2023-07-20T07:01:51;1.63;;;0.80;;
51495;SDS011;37572;52.094;4.870;2023-07-20T07:04:16;2.00;;;0.60;;
51495;SDS011;37572;52.094;4.870;2023-07-20T07:06:42;3.00;;;0.80;;
51495;SDS011;37572;52.094;4.870;2023-07-20T07:09:08;2.85;;;1.00;;
51495;SDS011;37572;52.094;4.870;2023-07-20T07:11:33;1.70;;;1.00;;
51495;SDS011;37572;52.094;4.870;2023-07-20T07:13:59;2.10;;;0.80;;
51495;SDS011;37572;52.094;4.870;2023-07-20T07:16:24;3.72;;;0.90;;
51495;SDS011;37572;52.094;4.870;2023-07-20T07:18:50;1.63;;;0.90;;
51495;SDS011;37572;52.094;4.870;2023-07-20T07:21:15;3.35;;;0.88;;
51495;SDS011;37572;52.094;4.870;2023-07-20T07:23:41;2.67;;;1.20;;
51495;SDS011;37572;52.094;4.870;2023-07-20T07:26:06;1.90;;;1.30;;
51495;SDS011;37572;52.094;4.870;2023-07-20T07:28:32;1.73;;;0.90;;
51495;SDS011;37572;52.094;4.870;2023-07-20T07:30:57;1.90;;;0.93;;
51495;SDS011;37572;52.094;4.870;2023-07-20T07:33:23;2.30;;;0.80;;
51495;SDS011;37572;52.094;4.870;2023-07-20T07:35:49;2.45;;;1.00;;
51495;SDS011;37572;52.094;4.870;2023-07-20T07:38:16;1.80;;;1.08;;
51495;SDS011;37572;52.094;4.870;2023-07-20T07:40:41;2.40;;;0.90;;
51495;SDS011;37572;52.094;4.870;2023-07-20T07:43:07;2.33;;;0.93;;
51495;SDS011;37572;52.094;4.870;2023-07-20T07:45:34;2.45;;;1.02;;
51495;SDS011;37572;52.094;4.870;2023-07-20T07:48:01;2.85;;;1.02;;
51495;SDS011;37572;52.094;4.870;2023-07-20T07:50:27;1.67;;;0.80;;
51495;SDS011;37572;52.094;4.870;2023-07-20T07:52:53;2.20;;;0.93;;
51495;SDS011;37572;52.094;4.870;2023-07-20T07:55:19;1.83;;;1.00;;
51495;SDS011;37572;52.094;4.870;2023-07-20T07:57:44;1.65;;;0.93;;
51495;SDS011;37572;52.094;4.870;2023-07-20T08:00:10;2.47;;;1.05;;
51495;SDS011;37572;52.094;4.870;2023-07-20T08:02:39;1.73;;;0.82;;
51495;SDS011;37572;52.094;4.870;2023-07-20T08:05:05;1.70;;;0.45;;
51495;SDS011;37572;52.094;4.870;2023-07-20T08:07:31;1.92;;;0.98;;
51495;SDS011;37572;52.094;4.870;2023-07-20T08:09:56;2.20;;;0.90;;
51495;SDS011;37572;52.094;4.870;2023-07-20T08:12:21;2.28;;;1.15;;
51495;SDS011;37572;52.094;4.870;2023-07-20T08:14:47;3.00;;;1.25;;
51495;SDS011;37572;52.094;4.870;2023-07-20T08:17:13;2.25;;;1.23;;
51495;SDS011;37572;52.094;4.870;2023-07-20T08:19:38;2.70;;;0.97;;
51495;SDS011;37572;52.094;4.870;2023-07-20T08:22:06;2.33;;;0.85;;
51495;SDS011;37572;52.094;4.870;2023-07-20T08:24:32;2.05;;;1.38;;
51495;SDS011;37572;52.094;4.870;2023-07-20T08:26:58;2.40;;;1.40;;
51495;SDS011;37572;52.094;4.870;2023-07-20T08:29:23;2.53;;;1.13;;
51495;SDS011;37572;52.094;4.870;2023-07-20T08:31:49;2.47;;;1.20;;
51495;SDS011;37572;52.094;4.870;2023-07-20T08:34:14;1.70;;;1.05;;
51495;SDS011;37572;52.094;4.870;2023-07-20T08:36:40;2.47;;;1.10;;
51495;SDS011;37572;52.094;4.870;2023-07-20T08:39:05;2.00;;;1.43;;
51495;SDS011;37572;52.094;4.870;2023-07-20T08:41:30;2.25;;;1.23;;
51495;SDS011;37572;52.094;4.870;2023-07-20T08:43:56;1.70;;;1.05;;
51495;SDS011;37572;52.094;4.870;2023-07-20T08:46:22;2.60;;;1.10;;
51495;SDS011;37572;52.094;4.870;2023-07-20T08:48:49;2.60;;;1.65;;
51495;SDS011;37572;52.094;4.870;2023-07-20T08:51:17;2.42;;;1.42;;
51495;SDS011;37572;52.094;4.870;2023-07-20T08:53:44;2.78;;;1.48;;
51495;SDS011;37572;52.094;4.870;2023-07-20T08:56:10;2.90;;;1.52;;
51495;SDS011;37572;52.094;4.870;2023-07-20T08:58:38;3.38;;;1.60;;
51495;SDS011;37572;52.094;4.870;2023-07-20T09:01:05;3.00;;;1.08;;
51495;SDS011;37572;52.094;4.870;2023-07-20T09:03:31;2.70;;;1.02;;
51495;SDS011;37572;52.094;4.870;2023-07-20T09:05:57;2.58;;;1.88;;
51495;SDS011;37572;52.094;4.870;2023-07-20T09:08:23;2.35;;;1.08;;
51495;SDS011;37572;52.094;4.870;2023-07-20T09:10:48;2.20;;;0.98;;
51495;SDS011;37572;52.094;4.870;2023-07-20T09:13:14;2.23;;;0.90;;
51495;SDS011;37572;52.094;4.870;2023-07-20T09:15:45;3.00;;;1.17;;
51495;SDS011;37572;52.094;4.870;2023-07-20T09:18:12;2.65;;;1.15;;
51495;SDS011;37572;52.094;4.870;2023-07-20T09:20:47;2.25;;;0.93;;
51495;SDS011;37572;52.094;4.870;2023-07-20T09:23:13;2.08;;;1.05;;
51495;SDS011;37572;52.094;4.870;2023-07-20T09:25:38;3.00;;;1.17;;
51495;SDS011;37572;52.094;4.870;2023-07-20T09:28:06;2.15;;;1.02;;
51495;SDS011;37572;52.094;4.870;2023-07-20T09:30:31;2.28;;;1.25;;
51495;SDS011;37572;52.094;4.870;2023-07-20T09:32:56;2.28;;;1.05;;
51495;SDS011;37572;52.094;4.870;2023-07-20T09:35:22;2.72;;;1.05;;
51495;SDS011;37572;52.094;4.870;2023-07-20T09:40:19;2.30;;;0.93;;
51495;SDS011;37572;52.094;4.870;2023-07-20T09:42:46;2.10;;;1.25;;
51495;SDS011;37572;52.094;4.870;2023-07-20T09:45:12;2.83;;;1.10;;
51495;SDS011;37572;52.094;4.870;2023-07-20T09:47:38;2.63;;;1.08;;
51495;SDS011;37572;52.094;4.870;2023-07-20T09:50:04;2.40;;;0.82;;
51495;SDS011;37572;52.094;4.870;2023-07-20T09:52:35;2.58;;;0.98;;
51495;SDS011;37572;52.094;4.870;2023-07-20T09:55:03;1.67;;;0.68;;
51495;SDS011;37572;52.094;4.870;2023-07-20T09:57:29;2.72;;;0.95;;
51495;SDS011;37572;52.094;4.870;2023-07-20T09:59:54;1.67;;;0.68;;
51495;SDS011;37572;52.094;4.870;2023-07-20T10:02:21;2.10;;;1.08;;
51495;SDS011;37572;52.094;4.870;2023-07-20T10:04:52;1.80;;;0.82;;
51495;SDS011;37572;52.094;4.870;2023-07-20T10:07:19;1.75;;;0.80;;
51495;SDS011;37572;52.094;4.870;2023-07-20T10:09:47;1.77;;;0.82;;
51495;SDS011;37572;52.094;4.870;2023-07-20T10:12:15;1.98;;;1.15;;
51495;SDS011;37572;52.094;4.870;2023-07-20T10:14:42;2.50;;;0.88;;
51495;SDS011;37572;52.094;4.870;2023-07-20T10:17:14;2.20;;;0.80;;
51495;SDS011;37572;52.094;4.870;2023-07-20T10:19:42;1.42;;;0.52;;
51495;SDS011;37572;52.094;4.870;2023-07-20T10:22:25;2.28;;;0.80;;
51495;SDS011;37572;52.094;4.870;2023-07-20T10:24:52;2.72;;;0.93;;
51495;SDS011;37572;52.094;4.870;2023-07-20T10:27:19;2.13;;;0.82;;
51495;SDS011;37572;52.094;4.870;2023-07-20T10:29:45;3.42;;;0.90;;
51495;SDS011;37572;52.094;4.870;2023-07-20T10:32:12;1.92;;;0.73;;
51495;SDS011;37572;52.094;4.870;2023-07-20T10:34:38;2.15;;;0.80;;
51495;SDS011;37572;52.094;4.870;2023-07-20T10:37:04;2.00;;;0.93;;
51495;SDS011;37572;52.094;4.870;2023-07-20T10:39:33;2.25;;;1.02;;
51495;SDS011;37572;52.094;4.870;2023-07-20T10:44:28;2.10;;;0.88;;
51495;SDS011;37572;52.094;4.870;2023-07-20T10:47:03;1.02;;;0.50;;
51495;SDS011;37572;52.094;4.870;2023-07-20T10:49:34;1.52;;;0.60;;
51495;SDS011;37572;52.094;4.870;2023-07-20T10:52:02;2.65;;;0.90;;
51495;SDS011;37572;52.094;4.870;2023-07-20T10:57:14;2.78;;;1.63;;
51495;SDS011;37572;52.094;4.870;2023-07-20T10:59:47;1.85;;;1.17;;
51495;SDS011;37572;52.094;4.870;2023-07-20T11:02:12;2.22;;;1.20;;
51495;SDS011;37572;52.094;4.870;2023-07-20T11:04:41;1.80;;;0.90;;
51495;SDS011;37572;52.094;4.870;2023-07-20T11:07:08;4.15;;;1.42;;
51495;SDS011;37572;52.094;4.870;2023-07-20T11:09:34;1.77;;;1.15;;
51495;SDS011;37572;52.094;4.870;2023-07-20T11:12:10;2.72;;;1.33;;
51495;SDS011;37572;52.094;4.870;2023-07-20T11:14:43;3.40;;;1.15;;
51495;SDS011;37572;52.094;4.870;2023-07-20T11:17:28;2.15;;;1.17;;
51495;SDS011;37572;52.094;4.870;2023-07-20T11:19:57;2.20;;;1.52;;
51495;SDS011;37572;52.094;4.870;2023-07-20T11:22:26;2.45;;;1.13;;
51495;SDS011;37572;52.094;4.870;2023-07-20T11:24:55;2.00;;;1.55;;
51495;SDS011;37572;52.094;4.870;2023-07-20T11:27:20;2.70;;;1.77;;
51495;SDS011;37572;52.094;4.870;2023-07-20T11:29:47;2.45;;;1.00;;
51495;SDS011;37572;52.094;4.870;2023-07-20T11:32:19;2.40;;;1.10;;
51495;SDS011;37572;52.094;4.870;2023-07-20T11:34:46;2.70;;;1.52;;
51495;SDS011;37572;52.094;4.870;2023-07-20T11:37:12;2.88;;;1.45;;
51495;SDS011;37572;52.094;4.870;2023-07-20T11:39:37;2.20;;;1.23;;
51495;SDS011;37572;52.094;4.870;2023-07-20T11:42:04;2.22;;;1.30;;
51495;SDS011;37572;52.094;4.870;2023-07-20T11:44:30;2.50;;;1.35;;
51495;SDS011;37572;52.094;4.870;2023-07-20T11:49:35;2.65;;;1.33;;
51495;SDS011;37572;52.094;4.870;2023-07-20T11:52:02;5.38;;;1.23;;
51495;SDS011;37572;52.094;4.870;2023-07-20T11:54:29;2.30;;;0.90;;
51495;SDS011;37572;52.094;4.870;2023-07-20T11:56:55;2.63;;;1.33;;
51495;SDS011;37572;52.094;4.870;2023-07-20T11:59:21;2.20;;;1.38;;
51495;SDS011;37572;52.094;4.870;2023-07-20T12:01:47;2.73;;;1.53;;
51495;SDS011;37572;52.094;4.870;2023-07-20T12:04:12;2.90;;;1.27;;
51495;SDS011;37572;52.094;4.870;2023-07-20T12:06:38;2.65;;;1.15;;
51495;SDS011;37572;52.094;4.870;2023-07-20T12:09:03;1.92;;;0.80;;
51495;SDS011;37572;52.094;4.870;2023-07-20T12:11:36;2.30;;;0.80;;
51495;SDS011;37572;52.094;4.870;2023-07-20T12:14:03;1.80;;;0.47;;
51495;SDS011;37572;52.094;4.870;2023-07-20T12:16:31;1.92;;;0.88;;
51495;SDS011;37572;52.094;4.870;2023-07-20T12:19:03;2.03;;;0.85;;
51495;SDS011;37572;52.094;4.870;2023-07-20T12:21:31;2.70;;;0.85;;
51495;SDS011;37572;52.094;4.870;2023-07-20T12:23:57;2.25;;;0.80;;
51495;SDS011;37572;52.094;4.870;2023-07-20T12:26:23;1.85;;;0.60;;
51495;SDS011;37572;52.094;4.870;2023-07-20T12:28:50;1.63;;;0.50;;
51495;SDS011;37572;52.094;4.870;2023-07-20T12:31:15;1.38;;;0.50;;
51495;SDS011;37572;52.094;4.870;2023-07-20T12:33:41;2.47;;;0.77;;
51495;SDS011;37572;52.094;4.870;2023-07-20T12:36:07;1.73;;;0.65;;
51495;SDS011;37572;52.094;4.870;2023-07-20T12:38:33;1.83;;;0.70;;
51495;SDS011;37572;52.094;4.870;2023-07-20T12:41:00;2.08;;;0.80;;
51495;SDS011;37572;52.094;4.870;2023-07-20T12:43:26;4.32;;;0.80;;
51495;SDS011;37572;52.094;4.870;2023-07-20T12:45:52;2.70;;;1.17;;
51495;SDS011;37572;52.094;4.870;2023-07-20T12:48:18;1.77;;;0.63;;
51495;SDS011;37572;52.094;4.870;2023-07-20T12:50:43;1.97;;;0.63;;
51495;SDS011;37572;52.094;4.870;2023-07-20T12:53:08;1.90;;;0.93;;
51495;SDS011;37572;52.094;4.870;2023-07-20T12:55:34;1.65;;;0.60;;
51495;SDS011;37572;52.094;4.870;2023-07-20T12:57:59;2.33;;;0.93;;
51495;SDS011;37572;52.094;4.870;2023-07-20T13:00:24;1.77;;;0.70;;
51495;SDS011;37572;52.094;4.870;2023-07-20T13:02:50;2.15;;;0.82;;
51495;SDS011;37572;52.094;4.870;2023-07-20T13:05:16;2.45;;;0.90;;
51495;SDS011;37572;52.094;4.870;2023-07-20T13:07:42;1.55;;;0.73;;
51495;SDS011;37572;52.094;4.870;2023-07-20T13:10:08;1.75;;;0.90;;
51495;SDS011;37572;52.094;4.870;2023-07-20T13:12:34;1.55;;;0.65;;
51495;SDS011;37572;52.094;4.870;2023-07-20T13:15:01;2.05;;;0.82;;
51495;SDS011;37572;52.094;4.870;2023-07-20T13:17:30;1.40;;;0.50;;
51495;SDS011;37572;52.094;4.870;2023-07-20T13:19:56;1.45;;;0.45;;
51495;SDS011;37572;52.094;4.870;2023-07-20T13:22:22;1.75;;;0.50;;
51495;SDS011;37572;52.094;4.870;2023-07-20T13:24:48;2.58;;;0.90;;
51495;SDS011;37572;52.094;4.870;2023-07-20T13:27:14;2.28;;;0.57;;
51495;SDS011;37572;52.094;4.870;2023-07-20T13:29:43;1.52;;;0.40;;
51495;SDS011;37572;52.094;4.870;2023-07-20T13:32:09;2.03;;;0.40;;
51495;SDS011;37572;52.094;4.870;2023-07-20T13:34:34;2.20;;;0.63;;
51495;SDS011;37572;52.094;4.870;2023-07-20T13:37:00;1.55;;;0.55;;
51495;SDS011;37572;52.094;4.870;2023-07-20T13:39:26;1.40;;;0.60;;
51495;SDS011;37572;52.094;4.870;2023-07-20T13:41:52;1.42;;;0.57;;
51495;SDS011;37572;52.094;4.870;2023-07-20T13:44:19;2.15;;;0.70;;
51495;SDS011;37572;52.094;4.870;2023-07-20T13:46:45;1.63;;;0.68;;
51495;SDS011;37572;52.094;4.870;2023-07-20T13:49:11;1.88;;;0.70;;
51495;SDS011;37572;52.094;4.870;2023-07-20T13:51:36;1.80;;;0.60;;
51495;SDS011;37572;52.094;4.870;2023-07-20T13:54:01;3.43;;;0.70;;
51495;SDS011;37572;52.094;4.870;2023-07-20T13:56:26;3.80;;;0.60;;
51495;SDS011;37572;52.094;4.870;2023-07-20T13:58:52;1.40;;;0.63;;
51495;SDS011;37572;52.094;4.870;2023-07-20T14:01:17;2.38;;;0.57;;
51495;SDS011;37572;52.094;4.870;2023-07-20T14:03:43;1.80;;;0.63;;
51495;SDS011;37572;52.094;4.870;2023-07-20T14:06:08;1.58;;;0.50;;
51495;SDS011;37572;52.094;4.870;2023-07-20T14:08:34;1.20;;;0.52;;
51495;SDS011;37572;52.094;4.870;2023-07-20T14:10:59;1.13;;;0.40;;
51495;SDS011;37572;52.094;4.870;2023-07-20T14:13:24;1.63;;;0.47;;
51495;SDS011;37572;52.094;4.870;2023-07-20T14:15:50;1.40;;;0.38;;
51495;SDS011;37572;52.094;4.870;2023-07-20T14:18:15;2.13;;;0.73;;
51495;SDS011;37572;52.094;4.870;2023-07-20T14:20:41;1.08;;;0.63;;
51495;SDS011;37572;52.094;4.870;2023-07-20T14:23:06;1.73;;;0.50;;
51495;SDS011;37572;52.094;4.870;2023-07-20T14:25:32;1.75;;;0.60;;
51495;SDS011;37572;52.094;4.870;2023-07-20T14:27:58;1.90;;;0.50;;
51495;SDS011;37572;52.094;4.870;2023-07-20T14:30:24;1.42;;;0.57;;
51495;SDS011;37572;52.094;4.870;2023-07-20T14:32:50;2.85;;;0.63;;
51495;SDS011;37572;52.094;4.870;2023-07-20T14:35:15;1.30;;;0.43;;
51495;SDS011;37572;52.094;4.870;2023-07-20T14:37:41;1.08;;;0.38;;
51495;SDS011;37572;52.094;4.870;2023-07-20T14:40:07;1.53;;;0.30;;
51495;SDS011;37572;52.094;4.870;2023-07-20T14:42:33;1.80;;;0.55;;
51495;SDS011;37572;52.094;4.870;2023-07-20T14:44:58;2.38;;;0.52;;
51495;SDS011;37572;52.094;4.870;2023-07-20T14:47:24;1.67;;;0.47;;
51495;SDS011;37572;52.094;4.870;2023-07-20T14:49:49;1.90;;;0.60;;
51495;SDS011;37572;52.094;4.870;2023-07-20T14:52:14;2.03;;;0.55;;
51495;SDS011;37572;52.094;4.870;2023-07-20T14:54:40;1.80;;;0.52;;
51495;SDS011;37572;52.094;4.870;2023-07-20T14:57:05;2.03;;;0.70;;
51495;SDS011;37572;52.094;4.870;2023-07-20T14:59:38;1.40;;;0.55;;
51495;SDS011;37572;52.094;4.870;2023-07-20T15:02:04;2.33;;;0.50;;